sensor_id;sensor_type;location;lat;lon;timestamp;temperature;humidity
30473;DHT22;17263;48.160;11.452;2023-02-14T00:00:36;0.70;99.90
30473;DHT22;17263;48.160;11.452;2023-02-14T00:03:02;0.70;99.90
30473;DHT22;17263;48.160;11.452;2023-02-14T00:05:28;0.70;99.90
30473;DHT22;17263;48.160;11.452;2023-02-14T00:07:54;0.80;99.90
30473;DHT22;17263;48.160;11.452;2023-02-14T00:10:20;0.70;99.90
30473;DHT22;17263;48.160;11.452;2023-02-14T00:12:46;0.70;99.90
30473;DHT22;17263;48.160;11.452;2023-02-14T00:15:12;0.70;99.90
30473;DHT22;17263;48.160;11.452;2023-02-14T00:17:51;0.70;99.90
30473;DHT22;17263;48.160;11.452;2023-02-14T00:20:20;0.70;99.90
30473;DHT22;17263;48.160;11.452;2023-02-14T00:22:46;0.60;99.90
30473;DHT22;17263;48.160;11.452;2023-02-14T00:25:13;0.60;99.90
30473;DHT22;17263;48.160;11.452;2023-02-14T00:27:39;0.60;99.90
30473;DHT22;17263;48.160;11.452;2023-02-14T00:30:07;0.50;99.90
30473;DHT22;17263;48.160;11.452;2023-02-14T00:32:35;0.50;99.90
30473;DHT22;17263;48.160;11.452;2023-02-14T00:35:01;0.40;99.90
30473;DHT22;17263;48.160;11.452;2023-02-14T00:37:27;0.50;99.90
30473;DHT22;17263;48.160;11.452;2023-02-14T00:39:53;0.40;99.90
30473;DHT22;17263;48.160;11.452;2023-02-14T00:42:19;0.30;99.90
30473;DHT22;17263;48.160;11.452;2023-02-14T00:44:45;0.40;99.90
30473;DHT22;17263;48.160;11.452;2023-02-14T00:47:11;0.40;99.90
30473;DHT22;17263;48.160;11.452;2023-02-14T00:49:37;0.40;99.90
30473;DHT22;17263;48.160;11.452;2023-02-14T00:52:04;0.50;99.90
30473;DHT22;17263;48.160;11.452;2023-02-14T00:54:30;0.50;99.90
30473;DHT22;17263;48.160;11.452;2023-02-14T00:56:56;0.50;99.90
30473;DHT22;17263;48.160;11.452;2023-02-14T00:59:22;0.40;99.90
30473;DHT22;17263;48.160;11.452;2023-02-14T01:01:48;0.40;99.90
30473;DHT22;17263;48.160;11.452;2023-02-14T01:04:14;0.40;99.90
30473;DHT22;17263;48.160;11.452;2023-02-14T01:06:40;0.40;99.90
30473;DHT22;17263;48.160;11.452;2023-02-14T01:09:06;0.40;99.90
30473;DHT22;17263;48.160;11.452;2023-02-14T01:11:32;0.40;99.90
30473;DHT22;17263;48.160;11.452;2023-02-14T01:13:58;0.30;99.90
30473;DHT22;17263;48.160;11.452;2023-02-14T01:16:26;0.40;99.90
30473;DHT22;17263;48.160;11.452;2023-02-14T01:18:52;0.40;99.90
30473;DHT22;17263;48.160;11.452;2023-02-14T01:23:45;0.40;99.90
30473;DHT22;17263;48.160;11.452;2023-02-14T01:26:11;0.30;99.90
30473;DHT22;17263;48.160;11.452;2023-02-14T01:28:38;0.40;99.90
30473;DHT22;17263;48.160;11.452;2023-02-14T01:31:10;0.40;99.90
30473;DHT22;17263;48.160;11.452;2023-02-14T01:33:39;0.50;99.90
30473;DHT22;17263;48.160;11.452;2023-02-14T01:36:05;0.50;99.90
30473;DHT22;17263;48.160;11.452;2023-02-14T01:38:32;0.50;99.90
30473;DHT22;17263;48.160;11.452;2023-02-14T01:40:58;0.50;99.90
30473;DHT22;17263;48.160;11.452;2023-02-14T01:43:24;0.50;99.90
30473;DHT22;17263;48.160;11.452;2023-02-14T01:45:50;0.50;99.90
30473;DHT22;17263;48.160;11.452;2023-02-14T01:48:18;0.50;99.90
30473;DHT22;17263;48.160;11.452;2023-02-14T01:50:46;0.50;99.90
30473;DHT22;17263;48.160;11.452;2023-02-14T01:53:23;0.50;99.90
30473;DHT22;17263;48.160;11.452;2023-02-14T01:55:58;0.50;99.90
30473;DHT22;17263;48.160;11.452;2023-02-14T01:58:28;0.40;99.90
30473;DHT22;17263;48.160;11.452;2023-02-14T02:00:56;0.40;99.90
30473;DHT22;17263;48.160;11.452;2023-02-14T02:03:37;0.30;99.90
30473;DHT22;17263;48.160;11.452;2023-02-14T02:06:15;0.40;99.90
30473;DHT22;17263;48.160;11.452;2023-02-14T02:09:10;0.40;99.90
30473;DHT22;17263;48.160;11.452;2023-02-14T02:11:34;0.40;99.90
30473;DHT22;17263;48.160;11.452;2023-02-14T02:14:00;0.40;99.90
30473;DHT22;17263;48.160;11.452;2023-02-14T02:25:22;0.50;99.90
30473;DHT22;17263;48.160;11.452;2023-02-14T02:39:09;0.50;99.90
30473;DHT22;17263;48.160;11.452;2023-02-14T02:47:54;0.50;99.90
30473;DHT22;17263;48.160;11.452;2023-02-14T02:58:53;0.50;99.90
30473;DHT22;17263;48.160;11.452;2023-02-14T03:01:34;0.50;99.90
30473;DHT22;17263;48.160;11.452;2023-02-14T03:04:06;0.50;99.90
30473;DHT22;17263;48.160;11.452;2023-02-14T03:06:52;0.60;99.90
30473;DHT22;17263;48.160;11.452;2023-02-14T03:12:10;0.60;99.90
30473;DHT22;17263;48.160;11.452;2023-02-14T03:14:48;0.60;99.90
30473;DHT22;17263;48.160;11.452;2023-02-14T03:17:35;0.50;99.90
30473;DHT22;17263;48.160;11.452;2023-02-14T03:20:52;0.60;99.90
30473;DHT22;17263;48.160;11.452;2023-02-14T03:34:20;0.50;99.90
30473;DHT22;17263;48.160;11.452;2023-02-14T03:42:12;0.60;99.90
30473;DHT22;17263;48.160;11.452;2023-02-14T03:44:42;0.60;99.90
30473;DHT22;17263;48.160;11.452;2023-02-14T03:47:12;0.50;99.90
30473;DHT22;17263;48.160;11.452;2023-02-14T03:49:49;0.50;99.90
30473;DHT22;17263;48.160;11.452;2023-02-14T03:52:19;0.50;99.90
30473;DHT22;17263;48.160;11.452;2023-02-14T03:54:47;0.50;99.90
30473;DHT22;17263;48.160;11.452;2023-02-14T03:57:24;0.50;99.90
30473;DHT22;17263;48.160;11.452;2023-02-14T03:59:52;0.40;99.90
30473;DHT22;17263;48.160;11.452;2023-02-14T04:02:32;0.40;99.90
30473;DHT22;17263;48.160;11.452;2023-02-14T04:04:59;0.40;99.90
30473;DHT22;17263;48.160;11.452;2023-02-14T04:07:27;0.40;99.90
30473;DHT22;17263;48.160;11.452;2023-02-14T04:09:53;0.40;99.90
30473;DHT22;17263;48.160;11.452;2023-02-14T04:12:19;0.50;99.90
30473;DHT22;17263;48.160;11.452;2023-02-14T04:14:45;0.50;99.90
30473;DHT22;17263;48.160;11.452;2023-02-14T04:17:11;0.50;99.90
30473;DHT22;17263;48.160;11.452;2023-02-14T04:19:56;0.40;99.90
30473;DHT22;17263;48.160;11.452;2023-02-14T04:22:22;0.40;99.90
30473;DHT22;17263;48.160;11.452;2023-02-14T04:24:48;0.40;99.90
30473;DHT22;17263;48.160;11.452;2023-02-14T04:27:14;0.40;99.90
30473;DHT22;17263;48.160;11.452;2023-02-14T04:29:46;0.30;99.90
30473;DHT22;17263;48.160;11.452;2023-02-14T04:32:14;0.30;99.90
30473;DHT22;17263;48.160;11.452;2023-02-14T04:34:41;0.40;99.90
30473;DHT22;17263;48.160;11.452;2023-02-14T04:37:08;0.40;99.90
30473;DHT22;17263;48.160;11.452;2023-02-14T04:39:34;0.30;99.90
30473;DHT22;17263;48.160;11.452;2023-02-14T04:42:01;0.40;99.90
30473;DHT22;17263;48.160;11.452;2023-02-14T04:44:27;0.30;99.90
30473;DHT22;17263;48.160;11.452;2023-02-14T04:46:53;0.30;99.90
30473;DHT22;17263;48.160;11.452;2023-02-14T04:49:19;0.30;99.90
30473;DHT22;17263;48.160;11.452;2023-02-14T04:51:45;0.40;99.90
30473;DHT22;17263;48.160;11.452;2023-02-14T04:54:11;0.40;99.90
30473;DHT22;17263;48.160;11.452;2023-02-14T04:56:37;0.40;99.90
30473;DHT22;17263;48.160;11.452;2023-02-14T04:59:03;0.30;99.90
30473;DHT22;17263;48.160;11.452;2023-02-14T05:01:29;0.30;99.90
30473;DHT22;17263;48.160;11.452;2023-02-14T05:03:56;0.30;99.90
30473;DHT22;17263;48.160;11.452;2023-02-14T05:06:22;0.30;99.90
30473;DHT22;17263;48.160;11.452;2023-02-14T05:08:48;0.20;99.90
30473;DHT22;17263;48.160;11.452;2023-02-14T05:11:14;0.20;99.90
30473;DHT22;17263;48.160;11.452;2023-02-14T05:13:40;0.10;99.90
30473;DHT22;17263;48.160;11.452;2023-02-14T05:16:06;0.20;99.90
30473;DHT22;17263;48.160;11.452;2023-02-14T05:18:32;0.10;99.90
30473;DHT22;17263;48.160;11.452;2023-02-14T05:20:58;0.00;99.90
30473;DHT22;17263;48.160;11.452;2023-02-14T05:23:24;0.00;99.90
30473;DHT22;17263;48.160;11.452;2023-02-14T05:25:51;-0.10;99.90
30473;DHT22;17263;48.160;11.452;2023-02-14T05:28:18;-0.10;99.90
30473;DHT22;17263;48.160;11.452;2023-02-14T05:30:44;0.00;99.90
30473;DHT22;17263;48.160;11.452;2023-02-14T05:33:10;0.00;99.90
30473;DHT22;17263;48.160;11.452;2023-02-14T05:35:36;0.00;99.90
30473;DHT22;17263;48.160;11.452;2023-02-14T05:38:02;0.10;99.90
30473;DHT22;17263;48.160;11.452;2023-02-14T05:40:28;0.10;99.90
30473;DHT22;17263;48.160;11.452;2023-02-14T05:42:54;0.10;99.90
30473;DHT22;17263;48.160;11.452;2023-02-14T05:45:21;0.10;99.90
30473;DHT22;17263;48.160;11.452;2023-02-14T05:47:48;0.10;99.90
30473;DHT22;17263;48.160;11.452;2023-02-14T05:50:15;0.00;99.90
30473;DHT22;17263;48.160;11.452;2023-02-14T05:52:41;0.10;99.90
30473;DHT22;17263;48.160;11.452;2023-02-14T05:55:08;0.00;99.90
30473;DHT22;17263;48.160;11.452;2023-02-14T05:57:34;0.00;99.90
30473;DHT22;17263;48.160;11.452;2023-02-14T06:00:00;-0.10;99.90
30473;DHT22;17263;48.160;11.452;2023-02-14T06:02:26;-0.10;99.90
30473;DHT22;17263;48.160;11.452;2023-02-14T06:04:52;-0.10;99.90
30473;DHT22;17263;48.160;11.452;2023-02-14T06:07:18;-0.20;99.90
30473;DHT22;17263;48.160;11.452;2023-02-14T06:09:44;-0.20;99.90
30473;DHT22;17263;48.160;11.452;2023-02-14T06:12:11;-0.20;99.90
30473;DHT22;17263;48.160;11.452;2023-02-14T06:14:37;-0.20;99.90
30473;DHT22;17263;48.160;11.452;2023-02-14T06:17:03;-0.20;99.90
30473;DHT22;17263;48.160;11.452;2023-02-14T06:19:29;-0.20;99.90
30473;DHT22;17263;48.160;11.452;2023-02-14T06:21:55;-0.30;99.90
30473;DHT22;17263;48.160;11.452;2023-02-14T06:24:21;-0.20;99.90
30473;DHT22;17263;48.160;11.452;2023-02-14T06:26:47;-0.20;99.90
30473;DHT22;17263;48.160;11.452;2023-02-14T06:29:15;-0.20;99.90
30473;DHT22;17263;48.160;11.452;2023-02-14T06:31:41;-0.20;99.90
30473;DHT22;17263;48.160;11.452;2023-02-14T06:34:07;-0.20;99.90
30473;DHT22;17263;48.160;11.452;2023-02-14T06:36:34;-0.20;99.90
30473;DHT22;17263;48.160;11.452;2023-02-14T06:39:00;-0.20;99.90
30473;DHT22;17263;48.160;11.452;2023-02-14T06:41:26;-0.30;99.90
30473;DHT22;17263;48.160;11.452;2023-02-14T06:43:52;-0.30;99.90
30473;DHT22;17263;48.160;11.452;2023-02-14T06:46:18;-0.30;99.90
30473;DHT22;17263;48.160;11.452;2023-02-14T06:48:45;-0.20;99.90
30473;DHT22;17263;48.160;11.452;2023-02-14T06:51:11;-0.20;99.90
30473;DHT22;17263;48.160;11.452;2023-02-14T06:53:37;-0.30;99.90
30473;DHT22;17263;48.160;11.452;2023-02-14T06:56:03;-0.30;99.90
30473;DHT22;17263;48.160;11.452;2023-02-14T06:58:30;-0.30;99.90
30473;DHT22;17263;48.160;11.452;2023-02-14T07:00:57;-0.40;99.90
30473;DHT22;17263;48.160;11.452;2023-02-14T07:03:24;-0.40;99.90
30473;DHT22;17263;48.160;11.452;2023-02-14T07:05:51;-0.30;99.90
30473;DHT22;17263;48.160;11.452;2023-02-14T07:08:17;-0.30;99.90
30473;DHT22;17263;48.160;11.452;2023-02-14T07:10:43;-0.30;99.90
30473;DHT22;17263;48.160;11.452;2023-02-14T07:13:09;-0.30;99.90
30473;DHT22;17263;48.160;11.452;2023-02-14T07:15:35;-0.30;99.90
30473;DHT22;17263;48.160;11.452;2023-02-14T07:18:02;-0.20;99.90
30473;DHT22;17263;48.160;11.452;2023-02-14T07:20:28;-0.20;99.90
30473;DHT22;17263;48.160;11.452;2023-02-14T07:22:54;-0.20;99.90
30473;DHT22;17263;48.160;11.452;2023-02-14T07:25:20;-0.10;99.90
30473;DHT22;17263;48.160;11.452;2023-02-14T07:27:47;-0.10;99.90
30473;DHT22;17263;48.160;11.452;2023-02-14T07:30:13;-0.10;99.90
30473;DHT22;17263;48.160;11.452;2023-02-14T07:32:39;-0.10;99.90
30473;DHT22;17263;48.160;11.452;2023-02-14T07:35:06;-0.20;99.90
30473;DHT22;17263;48.160;11.452;2023-02-14T07:37:34;-0.20;99.90
30473;DHT22;17263;48.160;11.452;2023-02-14T07:40:07;-0.20;99.90
30473;DHT22;17263;48.160;11.452;2023-02-14T07:42:33;-0.20;99.90
30473;DHT22;17263;48.160;11.452;2023-02-14T07:44:59;-0.20;99.90
30473;DHT22;17263;48.160;11.452;2023-02-14T07:47:25;-0.10;99.90
30473;DHT22;17263;48.160;11.452;2023-02-14T07:49:51;-0.10;99.90
30473;DHT22;17263;48.160;11.452;2023-02-14T07:52:17;-0.10;99.90
30473;DHT22;17263;48.160;11.452;2023-02-14T07:54:43;-0.10;99.90
30473;DHT22;17263;48.160;11.452;2023-02-14T07:57:09;0.00;99.90
30473;DHT22;17263;48.160;11.452;2023-02-14T07:59:35;-0.10;99.90
30473;DHT22;17263;48.160;11.452;2023-02-14T08:02:01;0.00;99.90
30473;DHT22;17263;48.160;11.452;2023-02-14T08:04:27;0.00;99.90
30473;DHT22;17263;48.160;11.452;2023-02-14T08:06:53;0.10;99.90
30473;DHT22;17263;48.160;11.452;2023-02-14T08:09:20;0.10;99.90
30473;DHT22;17263;48.160;11.452;2023-02-14T08:11:54;0.20;99.90
30473;DHT22;17263;48.160;11.452;2023-02-14T08:14:40;0.30;99.90
30473;DHT22;17263;48.160;11.452;2023-02-14T08:17:06;0.30;99.90
30473;DHT22;17263;48.160;11.452;2023-02-14T08:19:35;0.30;99.90
30473;DHT22;17263;48.160;11.452;2023-02-14T08:22:02;0.40;99.90
30473;DHT22;17263;48.160;11.452;2023-02-14T08:24:29;0.40;99.90
30473;DHT22;17263;48.160;11.452;2023-02-14T08:26:55;0.40;99.90
30473;DHT22;17263;48.160;11.452;2023-02-14T08:29:21;0.40;99.90
30473;DHT22;17263;48.160;11.452;2023-02-14T08:31:47;0.60;99.90
30473;DHT22;17263;48.160;11.452;2023-02-14T08:34:14;0.50;99.90
30473;DHT22;17263;48.160;11.452;2023-02-14T08:36:41;0.60;99.90
30473;DHT22;17263;48.160;11.452;2023-02-14T08:39:07;0.70;99.90
30473;DHT22;17263;48.160;11.452;2023-02-14T08:41:34;0.70;99.90
30473;DHT22;17263;48.160;11.452;2023-02-14T08:44:01;0.60;99.90
30473;DHT22;17263;48.160;11.452;2023-02-14T08:46:27;0.70;99.90
30473;DHT22;17263;48.160;11.452;2023-02-14T08:48:54;0.70;99.90
30473;DHT22;17263;48.160;11.452;2023-02-14T08:51:20;0.90;99.90
30473;DHT22;17263;48.160;11.452;2023-02-14T08:53:49;0.90;99.90
30473;DHT22;17263;48.160;11.452;2023-02-14T08:56:16;1.00;99.90
30473;DHT22;17263;48.160;11.452;2023-02-14T08:58:42;1.10;99.90
30473;DHT22;17263;48.160;11.452;2023-02-14T09:01:14;1.00;99.90
30473;DHT22;17263;48.160;11.452;2023-02-14T09:03:40;1.10;99.90
30473;DHT22;17263;48.160;11.452;2023-02-14T09:06:09;1.10;99.90
30473;DHT22;17263;48.160;11.452;2023-02-14T09:08:37;1.20;99.90
30473;DHT22;17263;48.160;11.452;2023-02-14T09:11:15;1.10;99.90
30473;DHT22;17263;48.160;11.452;2023-02-14T09:13:44;1.10;99.90
30473;DHT22;17263;48.160;11.452;2023-02-14T09:16:12;1.20;99.90
30473;DHT22;17263;48.160;11.452;2023-02-14T09:18:38;1.10;99.90
30473;DHT22;17263;48.160;11.452;2023-02-14T09:21:10;1.10;99.90
30473;DHT22;17263;48.160;11.452;2023-02-14T09:23:37;1.10;99.90
30473;DHT22;17263;48.160;11.452;2023-02-14T09:26:05;1.20;99.90
30473;DHT22;17263;48.160;11.452;2023-02-14T09:28:31;1.30;99.90
30473;DHT22;17263;48.160;11.452;2023-02-14T09:30:58;1.30;99.90
30473;DHT22;17263;48.160;11.452;2023-02-14T09:33:27;1.40;99.90
30473;DHT22;17263;48.160;11.452;2023-02-14T09:36:12;1.50;99.90
30473;DHT22;17263;48.160;11.452;2023-02-14T09:38:38;1.60;99.90
30473;DHT22;17263;48.160;11.452;2023-02-14T09:41:09;1.50;99.90
30473;DHT22;17263;48.160;11.452;2023-02-14T09:43:53;1.50;99.90
30473;DHT22;17263;48.160;11.452;2023-02-14T09:46:23;1.50;99.90
30473;DHT22;17263;48.160;11.452;2023-02-14T09:48:50;1.60;99.90
30473;DHT22;17263;48.160;11.452;2023-02-14T09:51:20;1.70;99.90
30473;DHT22;17263;48.160;11.452;2023-02-14T09:54:00;1.90;99.90
30473;DHT22;17263;48.160;11.452;2023-02-14T09:59:25;2.10;99.90
30473;DHT22;17263;48.160;11.452;2023-02-14T10:04:46;2.40;99.90
30473;DHT22;17263;48.160;11.452;2023-02-14T10:07:26;2.50;99.90
30473;DHT22;17263;48.160;11.452;2023-02-14T10:15:26;2.60;99.90
30473;DHT22;17263;48.160;11.452;2023-02-14T10:17:57;2.60;99.90
30473;DHT22;17263;48.160;11.452;2023-02-14T10:20:30;2.60;99.90
30473;DHT22;17263;48.160;11.452;2023-02-14T10:23:20;2.60;99.90
30473;DHT22;17263;48.160;11.452;2023-02-14T10:28:31;2.70;99.90
30473;DHT22;17263;48.160;11.452;2023-02-14T10:34:25;2.90;99.90
30473;DHT22;17263;48.160;11.452;2023-02-14T10:37:21;2.80;99.90
30473;DHT22;17263;48.160;11.452;2023-02-14T10:40:21;2.70;99.90
30473;DHT22;17263;48.160;11.452;2023-02-14T10:45:46;2.80;99.90
30473;DHT22;17263;48.160;11.452;2023-02-14T10:51:32;2.90;99.90
30473;DHT22;17263;48.160;11.452;2023-02-14T10:54:20;3.10;99.90
30473;DHT22;17263;48.160;11.452;2023-02-14T11:02:44;3.60;99.90
30473;DHT22;17263;48.160;11.452;2023-02-14T11:05:30;3.50;99.90
30473;DHT22;17263;48.160;11.452;2023-02-14T11:07:57;3.40;99.90
30473;DHT22;17263;48.160;11.452;2023-02-14T11:10:31;3.30;99.90
30473;DHT22;17263;48.160;11.452;2023-02-14T11:12:58;3.30;99.90
30473;DHT22;17263;48.160;11.452;2023-02-14T11:15:26;3.20;99.90
30473;DHT22;17263;48.160;11.452;2023-02-14T11:18:16;3.20;99.90
30473;DHT22;17263;48.160;11.452;2023-02-14T11:21:08;3.20;99.90
30473;DHT22;17263;48.160;11.452;2023-02-14T11:23:37;3.10;99.90
30473;DHT22;17263;48.160;11.452;2023-02-14T11:26:10;3.00;99.90
30473;DHT22;17263;48.160;11.452;2023-02-14T11:28:47;3.00;99.90
30473;DHT22;17263;48.160;11.452;2023-02-14T11:31:32;3.10;99.90
30473;DHT22;17263;48.160;11.452;2023-02-14T11:34:00;3.10;99.90
30473;DHT22;17263;48.160;11.452;2023-02-14T11:36:28;3.20;99.90
30473;DHT22;17263;48.160;11.452;2023-02-14T11:41:50;3.20;99.90
30473;DHT22;17263;48.160;11.452;2023-02-14T11:44:23;3.30;99.90
30473;DHT22;17263;48.160;11.452;2023-02-14T11:46:52;3.40;99.90
30473;DHT22;17263;48.160;11.452;2023-02-14T11:49:33;3.60;99.90
30473;DHT22;17263;48.160;11.452;2023-02-14T11:52:08;3.60;99.90
30473;DHT22;17263;48.160;11.452;2023-02-14T11:54:38;3.80;99.90
30473;DHT22;17263;48.160;11.452;2023-02-14T11:57:12;3.80;99.90
30473;DHT22;17263;48.160;11.452;2023-02-14T11:59:43;4.00;99.90
30473;DHT22;17263;48.160;11.452;2023-02-14T12:05:00;4.10;99.90
30473;DHT22;17263;48.160;11.452;2023-02-14T12:07:30;4.30;99.90
30473;DHT22;17263;48.160;11.452;2023-02-14T12:12:31;4.30;99.90
30473;DHT22;17263;48.160;11.452;2023-02-14T12:15:31;4.30;99.90
30473;DHT22;17263;48.160;11.452;2023-02-14T12:20:44;4.50;99.90
30473;DHT22;17263;48.160;11.452;2023-02-14T12:23:41;4.50;99.90
30473;DHT22;17263;48.160;11.452;2023-02-14T12:26:16;4.50;99.90
30473;DHT22;17263;48.160;11.452;2023-02-14T12:29:08;4.50;99.90
30473;DHT22;17263;48.160;11.452;2023-02-14T12:31:35;4.60;99.90
30473;DHT22;17263;48.160;11.452;2023-02-14T12:34:02;4.60;99.90
30473;DHT22;17263;48.160;11.452;2023-02-14T12:51:45;4.70;99.90
30473;DHT22;17263;48.160;11.452;2023-02-14T13:08:28;4.70;99.90
30473;DHT22;17263;48.160;11.452;2023-02-14T13:14:01;4.80;99.90
30473;DHT22;17263;48.160;11.452;2023-02-14T13:16:50;4.80;99.90
30473;DHT22;17263;48.160;11.452;2023-02-14T13:22:24;4.80;99.90
30473;DHT22;17263;48.160;11.452;2023-02-14T13:24:56;4.90;99.90
30473;DHT22;17263;48.160;11.452;2023-02-14T13:27:29;4.90;99.90
30473;DHT22;17263;48.160;11.452;2023-02-14T13:30:18;4.90;99.90
30473;DHT22;17263;48.160;11.452;2023-02-14T13:32:49;5.00;99.90
30473;DHT22;17263;48.160;11.452;2023-02-14T13:35:20;5.00;99.90
30473;DHT22;17263;48.160;11.452;2023-02-14T13:37:53;5.00;99.90
30473;DHT22;17263;48.160;11.452;2023-02-14T13:40:24;5.10;99.90
30473;DHT22;17263;48.160;11.452;2023-02-14T13:42:53;5.00;99.90
30473;DHT22;17263;48.160;11.452;2023-02-14T13:50:58;5.10;99.90
30473;DHT22;17263;48.160;11.452;2023-02-14T13:53:42;5.10;99.90
30473;DHT22;17263;48.160;11.452;2023-02-14T13:58:53;5.20;99.90
30473;DHT22;17263;48.160;11.452;2023-02-14T14:01:28;5.20;99.90
30473;DHT22;17263;48.160;11.452;2023-02-14T14:03:57;5.30;99.90
30473;DHT22;17263;48.160;11.452;2023-02-14T14:06:24;5.40;99.90
30473;DHT22;17263;48.160;11.452;2023-02-14T14:08:52;5.30;99.90
30473;DHT22;17263;48.160;11.452;2023-02-14T14:14:25;5.50;99.90
30473;DHT22;17263;48.160;11.452;2023-02-14T14:16:57;5.40;99.90
30473;DHT22;17263;48.160;11.452;2023-02-14T14:22:12;5.40;99.90
30473;DHT22;17263;48.160;11.452;2023-02-14T14:24:41;5.40;99.90
30473;DHT22;17263;48.160;11.452;2023-02-14T14:27:19;5.40;99.90
30473;DHT22;17263;48.160;11.452;2023-02-14T14:37:49;5.40;99.90
30473;DHT22;17263;48.160;11.452;2023-02-14T14:40:27;5.40;99.90
30473;DHT22;17263;48.160;11.452;2023-02-14T14:42:58;5.40;99.90
30473;DHT22;17263;48.160;11.452;2023-02-14T14:45:27;5.30;99.90
30473;DHT22;17263;48.160;11.452;2023-02-14T14:47:58;5.30;99.90
30473;DHT22;17263;48.160;11.452;2023-02-14T14:50:31;5.30;99.90
30473;DHT22;17263;48.160;11.452;2023-02-14T14:53:13;5.20;99.90
30473;DHT22;17263;48.160;11.452;2023-02-14T14:55:45;5.20;99.90
30473;DHT22;17263;48.160;11.452;2023-02-14T14:58:34;5.20;99.90
30473;DHT22;17263;48.160;11.452;2023-02-14T15:01:05;5.20;99.90
30473;DHT22;17263;48.160;11.452;2023-02-14T15:03:32;5.20;99.90
30473;DHT22;17263;48.160;11.452;2023-02-14T15:06:16;5.10;99.90
30473;DHT22;17263;48.160;11.452;2023-02-14T15:08:44;5.00;99.90
30473;DHT22;17263;48.160;11.452;2023-02-14T15:11:22;5.00;99.90
30473;DHT22;17263;48.160;11.452;2023-02-14T15:14:14;5.00;99.90
30473;DHT22;17263;48.160;11.452;2023-02-14T15:16:52;5.00;99.90
30473;DHT22;17263;48.160;11.452;2023-02-14T15:19:31;5.00;99.90
30473;DHT22;17263;48.160;11.452;2023-02-14T15:22:28;5.00;99.90
30473;DHT22;17263;48.160;11.452;2023-02-14T15:24:52;4.90;99.90
30473;DHT22;17263;48.160;11.452;2023-02-14T15:27:23;4.90;99.90
30473;DHT22;17263;48.160;11.452;2023-02-14T15:29:54;4.80;99.90
30473;DHT22;17263;48.160;11.452;2023-02-14T15:32:21;4.70;99.90
30473;DHT22;17263;48.160;11.452;2023-02-14T15:34:48;4.70;99.90
30473;DHT22;17263;48.160;11.452;2023-02-14T15:37:14;4.60;99.90
30473;DHT22;17263;48.160;11.452;2023-02-14T15:39:45;4.60;99.90
30473;DHT22;17263;48.160;11.452;2023-02-14T15:42:22;4.40;99.90
30473;DHT22;17263;48.160;11.452;2023-02-14T15:45:18;4.30;99.90
30473;DHT22;17263;48.160;11.452;2023-02-14T15:48:11;4.20;99.90
30473;DHT22;17263;48.160;11.452;2023-02-14T15:50:42;4.10;99.90
30473;DHT22;17263;48.160;11.452;2023-02-14T15:53:44;4.00;99.90
30473;DHT22;17263;48.160;11.452;2023-02-14T15:56:23;3.90;99.90
30473;DHT22;17263;48.160;11.452;2023-02-14T15:59:01;3.80;99.90
30473;DHT22;17263;48.160;11.452;2023-02-14T16:01:29;3.70;99.90
30473;DHT22;17263;48.160;11.452;2023-02-14T16:03:58;3.60;99.90
30473;DHT22;17263;48.160;11.452;2023-02-14T16:09:05;3.60;99.90
30473;DHT22;17263;48.160;11.452;2023-02-14T16:11:34;3.40;99.90
30473;DHT22;17263;48.160;11.452;2023-02-14T16:14:32;3.40;99.90
30473;DHT22;17263;48.160;11.452;2023-02-14T16:17:01;3.10;99.90
30473;DHT22;17263;48.160;11.452;2023-02-14T16:19:39;3.00;99.90
30473;DHT22;17263;48.160;11.452;2023-02-14T16:22:09;2.90;99.90
30473;DHT22;17263;48.160;11.452;2023-02-14T16:24:35;2.80;99.90
30473;DHT22;17263;48.160;11.452;2023-02-14T16:27:03;2.60;99.90
30473;DHT22;17263;48.160;11.452;2023-02-14T16:29:33;2.50;99.90
30473;DHT22;17263;48.160;11.452;2023-02-14T16:32:09;2.50;99.90
30473;DHT22;17263;48.160;11.452;2023-02-14T16:34:35;2.40;99.90
30473;DHT22;17263;48.160;11.452;2023-02-14T16:39:44;2.20;99.90
30473;DHT22;17263;48.160;11.452;2023-02-14T16:42:17;2.00;99.90
30473;DHT22;17263;48.160;11.452;2023-02-14T16:44:44;1.90;99.90
30473;DHT22;17263;48.160;11.452;2023-02-14T16:47:12;1.90;99.90
30473;DHT22;17263;48.160;11.452;2023-02-14T16:49:38;1.80;99.90
30473;DHT22;17263;48.160;11.452;2023-02-14T16:52:05;1.70;99.90
30473;DHT22;17263;48.160;11.452;2023-02-14T16:54:35;1.70;99.90
30473;DHT22;17263;48.160;11.452;2023-02-14T16:57:03;1.70;99.90
30473;DHT22;17263;48.160;11.452;2023-02-14T16:59:30;1.70;99.90
30473;DHT22;17263;48.160;11.452;2023-02-14T17:01:57;1.60;99.90
30473;DHT22;17263;48.160;11.452;2023-02-14T17:04:23;1.60;99.90
30473;DHT22;17263;48.160;11.452;2023-02-14T17:06:53;1.60;99.90
30473;DHT22;17263;48.160;11.452;2023-02-14T17:09:23;1.60;99.90
30473;DHT22;17263;48.160;11.452;2023-02-14T17:11:51;1.60;99.90
30473;DHT22;17263;48.160;11.452;2023-02-14T17:14:22;1.60;99.90
30473;DHT22;17263;48.160;11.452;2023-02-14T17:16:50;1.50;99.90
30473;DHT22;17263;48.160;11.452;2023-02-14T17:19:16;1.50;99.90
30473;DHT22;17263;48.160;11.452;2023-02-14T17:21:43;1.60;99.90
30473;DHT22;17263;48.160;11.452;2023-02-14T17:24:09;1.50;99.90
30473;DHT22;17263;48.160;11.452;2023-02-14T17:26:35;1.50;99.90
30473;DHT22;17263;48.160;11.452;2023-02-14T17:29:03;1.50;99.90
30473;DHT22;17263;48.160;11.452;2023-02-14T17:31:29;1.50;99.90
30473;DHT22;17263;48.160;11.452;2023-02-14T17:33:55;1.60;99.90
30473;DHT22;17263;48.160;11.452;2023-02-14T17:36:21;1.50;99.90
30473;DHT22;17263;48.160;11.452;2023-02-14T17:38:51;1.50;99.90
30473;DHT22;17263;48.160;11.452;2023-02-14T17:41:23;1.50;99.90
30473;DHT22;17263;48.160;11.452;2023-02-14T17:43:51;1.50;99.90
30473;DHT22;17263;48.160;11.452;2023-02-14T17:46:20;1.50;99.90
30473;DHT22;17263;48.160;11.452;2023-02-14T17:48:47;1.60;99.90
30473;DHT22;17263;48.160;11.452;2023-02-14T17:51:15;1.60;99.90
30473;DHT22;17263;48.160;11.452;2023-02-14T17:53:41;1.60;99.90
30473;DHT22;17263;48.160;11.452;2023-02-14T17:56:13;1.50;99.90
30473;DHT22;17263;48.160;11.452;2023-02-14T17:58:39;1.50;99.90
30473;DHT22;17263;48.160;11.452;2023-02-14T18:01:10;1.50;99.90
30473;DHT22;17263;48.160;11.452;2023-02-14T18:03:37;1.50;99.90
30473;DHT22;17263;48.160;11.452;2023-02-14T18:06:04;1.40;99.90
30473;DHT22;17263;48.160;11.452;2023-02-14T18:08:33;1.40;99.90
30473;DHT22;17263;48.160;11.452;2023-02-14T18:11:02;1.30;99.90
30473;DHT22;17263;48.160;11.452;2023-02-14T18:13:29;1.30;99.90
30473;DHT22;17263;48.160;11.452;2023-02-14T18:15:55;1.20;99.90
30473;DHT22;17263;48.160;11.452;2023-02-14T18:18:21;1.20;99.90
30473;DHT22;17263;48.160;11.452;2023-02-14T18:20:58;1.20;99.90
30473;DHT22;17263;48.160;11.452;2023-02-14T18:23:25;1.10;99.90
30473;DHT22;17263;48.160;11.452;2023-02-14T18:25:53;1.10;99.90
30473;DHT22;17263;48.160;11.452;2023-02-14T18:28:20;1.10;99.90